Time;durP1;ratioP1;P1;durP2;ratioP2;P2;SDS_P1;SDS_P2;PMS_P1;PMS_P2;Temp;Humidity;BMP_temperature;BMP_pressure;BME280_temperature;BME280_humidity;BME280_pressure;Samples;Min_cycle;Max_cycle;Signal;HPM_P1;HPM_P2
2023/10/13 00:01:54;;;;;;;32.00;19.08;;;12.40;99.90;;;;;;5052862;28;20017;-79
2023/10/13 00:04:24;;;;;;;34.10;19.15;;;12.40;99.90;;;;;;5051246;28;20017;-84
2023/10/13 00:06:56;;;;;;;39.55;20.13;;;12.40;99.90;;;;;;5051587;28;20025;-79
2023/10/13 00:09:32;;;;;;;37.38;19.75;;;12.40;99.90;;;;;;5051766;28;20382;-79
2023/10/13 00:12:01;;;;;;;34.58;18.45;;;12.40;99.90;;;;;;5066636;28;20090;-79
2023/10/13 00:14:33;;;;;;;34.00;19.55;;;12.40;99.90;;;;;;5051461;28;20021;-79
2023/10/13 00:17:04;;;;;;;35.35;20.05;;;12.30;99.90;;;;;;5052457;28;20108;-84
2023/10/13 00:19:37;;;;;;;38.17;21.98;;;12.30;99.90;;;;;;5051471;28;20163;-84
2023/10/13 00:22:10;;;;;;;41.08;23.60;;;12.30;99.90;;;;;;5051151;28;20474;-79
2023/10/13 00:24:45;;;;;;;37.33;22.40;;;12.40;99.90;;;;;;5052752;28;20049;-84
2023/10/13 00:27:33;;;;;;;41.33;24.95;;;12.40;99.90;;;;;;5052501;28;20021;-79
2023/10/13 00:36:36;;;;;;;45.38;24.65;;;12.40;99.90;;;;;;5052342;28;20044;-79
2023/10/13 00:39:03;;;;;;;51.05;25.25;;;12.40;99.90;;;;;;5050973;28;20025;-84
2023/10/13 00:44:16;;;;;;;49.63;26.38;;;12.30;99.90;;;;;;5052397;28;20044;-79
2023/10/13 00:46:44;;;;;;;50.00;26.80;;;12.30;99.90;;;;;;5050954;28;20171;-84
2023/10/13 00:49:15;;;;;;;52.00;26.83;;;12.30;99.90;;;;;;5050702;28;20037;-84
2023/10/13 00:51:46;;;;;;;49.50;26.70;;;12.30;99.90;;;;;;5051201;28;20533;-79
2023/10/13 00:54:13;;;;;;;48.10;26.55;;;12.30;99.90;;;;;;5050420;28;20021;-79
2023/10/13 00:56:48;;;;;;;51.78;26.50;;;12.30;99.90;;;;;;5056172;28;20021;-84
2023/10/13 00:59:16;;;;;;;43.58;24.08;;;12.30;99.90;;;;;;5055684;28;20064;-84
2023/10/13 01:01:43;;;;;;;44.42;24.58;;;12.30;99.90;;;;;;5055019;28;20028;-79
2023/10/13 01:04:12;;;;;;;54.03;26.17;;;12.20;99.90;;;;;;5054511;28;20111;-84
2023/10/13 01:06:38;;;;;;;55.95;25.40;;;12.20;99.90;;;;;;5054635;28;20021;-79
2023/10/13 01:09:18;;;;;;;46.40;26.25;;;12.20;99.90;;;;;;5054258;28;20036;-79
2023/10/13 01:11:52;;;;;;;45.42;23.23;;;12.10;99.90;;;;;;5043910;28;20112;-77
2023/10/13 01:14:18;;;;;;;45.05;23.83;;;12.10;99.90;;;;;;5053252;28;20067;-82
2023/10/13 01:16:45;;;;;;;51.58;25.45;;;12.10;99.90;;;;;;5054575;28;20043;-82
2023/10/13 01:22:33;;;;;;;39.78;22.38;;;12.00;99.90;;;;;;5045446;28;20055;-82
2023/10/13 01:25:12;;;;;;;35.35;21.55;;;12.00;99.90;;;;;;5055898;28;20049;-83
2023/10/13 01:27:38;;;;;;;38.63;21.60;;;11.90;99.90;;;;;;5053058;28;20478;-77
2023/10/13 01:30:10;;;;;;;36.38;22.20;;;11.90;99.90;;;;;;5055629;28;20395;-77
2023/10/13 01:32:45;;;;;;;37.63;21.42;;;11.90;99.90;;;;;;5054192;28;20013;-82
2023/10/13 01:35:11;;;;;;;33.63;19.77;;;11.90;99.90;;;;;;5054144;28;20021;-78
2023/10/13 01:37:36;;;;;;;34.55;20.40;;;11.90;99.90;;;;;;5055285;28;20093;-78
2023/10/13 01:40:02;;;;;;;37.05;21.23;;;11.80;99.90;;;;;;5055458;28;20486;-83
2023/10/13 01:42:30;;;;;;;38.17;22.15;;;11.80;99.90;;;;;;5053730;28;20017;-84
2023/10/13 01:44:58;;;;;;;34.63;21.05;;;11.80;99.90;;;;;;5054212;28;20010;-78
2023/10/13 01:47:27;;;;;;;33.13;19.50;;;11.70;99.90;;;;;;5053685;28;20458;-83
2023/10/13 01:49:53;;;;;;;34.08;18.98;;;11.70;99.90;;;;;;5055176;28;20009;-84
2023/10/13 01:52:19;;;;;;;30.23;18.27;;;11.70;99.90;;;;;;5053998;28;20036;-78
2023/10/13 01:54:50;;;;;;;30.77;18.25;;;11.70;99.90;;;;;;5053765;28;20021;-78
2023/10/13 01:57:24;;;;;;;31.67;18.60;;;11.70;99.90;;;;;;5042320;28;20045;-83
2023/10/13 01:59:50;;;;;;;26.08;17.60;;;11.60;99.90;;;;;;5052795;28;20025;-84
2023/10/13 02:02:26;;;;;;;26.17;16.95;;;11.60;99.90;;;;;;5054995;28;20025;-78
2023/10/13 02:05:02;;;;;;;32.47;17.90;;;11.50;99.90;;;;;;5055270;28;20013;-78
2023/10/13 02:07:31;;;;;;;23.65;16.17;;;11.50;99.90;;;;;;5053845;28;20021;-83
2023/10/13 02:10:00;;;;;;;23.23;14.13;;;11.50;99.90;;;;;;5054930;28;20039;-83
2023/10/13 02:12:36;;;;;;;20.10;12.93;;;11.40;99.90;;;;;;5054719;28;20025;-78
2023/10/13 02:15:04;;;;;;;35.78;16.50;;;11.30;99.90;;;;;;5053809;28;20017;-83
2023/10/13 02:17:40;;;;;;;30.27;15.30;;;11.30;99.90;;;;;;5054505;28;20056;-83
2023/10/13 02:20:09;;;;;;;93.10;21.42;;;11.20;99.90;;;;;;5052390;28;20035;-83
2023/10/13 02:22:36;;;;;;;28.40;17.23;;;11.10;99.90;;;;;;5052905;28;20013;-83
2023/10/13 02:25:05;;;;;;;31.65;16.17;;;11.10;99.90;;;;;;5053521;28;20021;-78
2023/10/13 02:27:40;;;;;;;24.38;16.55;;;11.00;99.90;;;;;;5036856;28;20478;-78
2023/10/13 02:30:13;;;;;;;20.70;14.95;;;11.00;99.90;;;;;;5052377;28;20025;-78
2023/10/13 02:32:43;;;;;;;23.52;15.48;;;10.90;99.90;;;;;;5041610;28;20474;-83
2023/10/13 02:35:15;;;;;;;20.08;12.63;;;10.90;99.90;;;;;;5053203;28;20370;-83
2023/10/13 02:41:05;;;;;;;22.15;13.38;;;10.80;99.90;;;;;;5048050;28;20298;-83
2023/10/13 02:43:36;;;;;;;21.23;14.00;;;10.80;99.90;;;;;;5052790;28;20021;-78
2023/10/13 02:46:03;;;;;;;20.35;13.50;;;10.80;99.90;;;;;;5052892;28;20031;-82
2023/10/13 02:48:40;;;;;;;24.55;14.40;;;10.80;99.90;;;;;;5047691;28;20117;-78
2023/10/13 02:51:16;;;;;;;21.05;14.25;;;10.80;99.90;;;;;;5046541;28;20060;-83
2023/10/13 02:53:46;;;;;;;21.20;13.65;;;10.80;99.90;;;;;;5042752;28;20416;-83
2023/10/13 02:56:13;;;;;;;25.73;14.93;;;10.80;99.90;;;;;;5052615;28;20020;-78
2023/10/13 02:58:45;;;;;;;21.65;14.90;;;10.80;99.90;;;;;;5053969;28;20051;-79
2023/10/13 03:01:17;;;;;;;26.33;13.75;;;10.80;99.90;;;;;;5053608;28;20025;-78
2023/10/13 03:03:53;;;;;;;23.60;13.50;;;10.70;99.90;;;;;;5052571;28;20536;-82
2023/10/13 03:06:32;;;;;;;22.63;13.77;;;10.70;99.90;;;;;;5053757;28;20388;-78
2023/10/13 03:09:14;;;;;;;25.38;13.88;;;10.70;99.90;;;;;;5053993;28;20029;-78
2023/10/13 03:11:48;;;;;;;18.55;13.80;;;10.60;99.90;;;;;;5043832;28;20052;-83
2023/10/13 03:14:23;;;;;;;28.38;15.27;;;10.60;99.90;;;;;;5053401;28;20477;-83
2023/10/13 03:17:05;;;;;;;26.00;15.02;;;10.60;99.90;;;;;;5053513;28;20021;-83
2023/10/13 03:19:36;;;;;;;25.48;13.88;;;10.50;99.90;;;;;;5039702;28;20402;-78
2023/10/13 03:22:11;;;;;;;23.60;14.68;;;10.50;99.90;;;;;;5052075;28;20067;-78
2023/10/13 03:24:44;;;;;;;24.80;15.35;;;10.50;99.90;;;;;;5052209;28;20033;-83
2023/10/13 03:27:11;;;;;;;24.52;14.13;;;10.50;99.90;;;;;;5051781;28;20025;-83
2023/10/13 03:29:42;;;;;;;21.83;14.07;;;10.40;99.90;;;;;;5053746;28;20025;-78
2023/10/13 03:32:15;;;;;;;25.27;15.48;;;10.40;99.90;;;;;;5035942;28;20021;-82
2023/10/13 03:34:49;;;;;;;25.73;14.40;;;10.30;99.90;;;;;;5051955;28;20021;-83
2023/10/13 03:37:35;;;;;;;28.40;15.50;;;10.30;99.90;;;;;;5051774;28;20032;-78
2023/10/13 03:40:06;;;;;;;26.55;14.82;;;10.20;99.90;;;;;;5053138;28;20051;-78
2023/10/13 03:42:32;;;;;;;21.70;14.85;;;10.20;99.90;;;;;;5051839;28;20039;-78
2023/10/13 03:44:57;;;;;;;22.73;13.88;;;10.20;99.90;;;;;;5052845;28;20044;-83
2023/10/13 03:47:32;;;;;;;23.33;14.15;;;10.10;99.90;;;;;;5051785;28;20524;-78
2023/10/13 03:50:16;;;;;;;23.13;12.30;;;10.10;99.90;;;;;;5052963;28;20025;-78
2023/10/13 03:52:41;;;;;;;16.13;11.75;;;10.10;99.90;;;;;;5051521;28;20056;-83
2023/10/13 03:55:16;;;;;;;20.90;12.98;;;10.00;99.90;;;;;;5052962;28;20029;-83
2023/10/13 03:57:42;;;;;;;21.45;14.50;;;10.00;99.90;;;;;;5051108;28;20069;-83
2023/10/13 04:00:09;;;;;;;21.63;12.23;;;9.90;99.90;;;;;;5052557;28;20041;-78
2023/10/13 04:02:36;;;;;;;19.58;11.85;;;9.90;99.90;;;;;;5052699;28;20024;-78
2023/10/13 04:05:09;;;;;;;21.27;13.23;;;9.90;99.90;;;;;;5051500;28;20104;-83
2023/10/13 04:08:44;;;;;;;20.77;13.05;;;9.90;99.90;;;;;;5051414;28;20499;-83
2023/10/13 04:14:20;;;;;;;14.68;11.00;;;9.80;99.90;;;;;;5041988;28;20108;-78
2023/10/13 04:32:38;;;;;;;25.85;14.02;;;9.90;99.90;;;;;;5056380;28;20106;-78
2023/10/13 04:35:10;;;;;;;19.15;12.55;;;9.90;99.90;;;;;;5055482;28;20433;-83
2023/10/13 04:40:37;;;;;;;19.90;12.98;;;9.90;99.90;;;;;;5055382;28;20065;-83
2023/10/13 04:43:32;;;;;;;21.08;13.40;;;9.90;99.90;;;;;;5056037;28;20027;-78
2023/10/13 04:45:54;;;;;;;23.67;14.18;;;9.90;99.90;;;;;;5056402;28;20486;-83
2023/10/13 04:50:59;;;;;;;23.17;13.98;;;10.00;99.90;;;;;;5056675;28;20040;-83
2023/10/13 05:01:49;;;;;;;23.10;14.75;;;10.10;99.90;;;;;;5056371;28;20162;-83
2023/10/13 05:04:22;;;;;;;21.20;13.98;;;10.10;99.90;;;;;;5055342;28;20022;-78
2023/10/13 06:31:08;;;;;;;44.10;25.10;;;11.80;99.90;;;;;;5043646;28;20040;-83
2023/10/13 06:33:42;;;;;;;42.58;24.23;;;11.80;99.90;;;;;;5052840;28;20036;-77
2023/10/13 06:36:09;;;;;;;41.35;24.77;;;11.90;99.90;;;;;;5054542;28;20025;-77
2023/10/13 06:38:38;;;;;;;44.20;24.15;;;11.90;99.90;;;;;;5052873;28;20037;-77
2023/10/13 06:41:07;;;;;;;42.17;26.33;;;12.00;99.90;;;;;;5052883;28;20517;-77
2023/10/13 06:43:40;;;;;;;48.33;27.17;;;12.00;99.90;;;;;;5052568;28;20060;-82
2023/10/13 06:46:16;;;;;;;44.53;26.40;;;12.10;99.90;;;;;;5052318;28;20070;-78
2023/10/13 06:48:43;;;;;;;49.28;28.98;;;12.20;99.90;;;;;;5052700;28;20040;-77
2023/10/13 06:51:17;;;;;;;45.83;27.98;;;12.20;99.90;;;;;;5053945;28;20103;-77
2023/10/13 06:53:47;;;;;;;53.15;30.73;;;12.30;99.90;;;;;;5042235;28;20013;-83
2023/10/13 06:56:22;;;;;;;73.05;33.53;;;12.40;99.90;;;;;;5053928;28;20025;-78
2023/10/13 06:58:49;;;;;;;48.80;28.00;;;12.50;99.90;;;;;;5052705;28;20155;-78
2023/10/13 07:01:15;;;;;;;51.00;27.58;;;12.60;99.90;;;;;;5053402;28;20075;-83
2023/10/13 07:03:43;;;;;;;51.10;25.45;;;12.70;99.90;;;;;;5053693;28;20029;-83
2023/10/13 07:06:17;;;;;;;48.53;23.02;;;12.90;99.90;;;;;;5053395;28;20028;-83
2023/10/13 07:08:51;;;;;;;41.40;23.67;;;13.00;99.90;;;;;;5053575;28;20036;-78
2023/10/13 07:11:38;;;;;;;40.25;23.65;;;13.20;99.90;;;;;;5049482;28;20108;-78
2023/10/13 07:14:10;;;;;;;34.72;19.88;;;13.40;99.90;;;;;;5046143;28;20032;-78
2023/10/13 07:16:58;;;;;;;34.13;20.33;;;13.50;99.90;;;;;;5052026;28;20054;-78
2023/10/13 07:19:27;;;;;;;37.92;20.90;;;13.60;99.90;;;;;;5051909;28;20025;-78
2023/10/13 07:21:58;;;;;;;26.52;17.80;;;13.60;99.90;;;;;;5047668;28;20394;-78
2023/10/13 07:24:39;;;;;;;30.20;18.73;;;13.70;99.90;;;;;;5040656;28;20052;-78
2023/10/13 07:27:05;;;;;;;36.53;20.15;;;13.70;99.90;;;;;;5046541;28;20492;-77
2023/10/13 07:29:35;;;;;;;34.53;20.23;;;13.70;99.90;;;;;;5049165;28;20029;-77
2023/10/13 07:32:05;;;;;;;82.53;45.42;;;13.80;99.90;;;;;;5046810;28;20585;-84
2023/10/13 07:34:35;;;;;;;41.42;22.80;;;13.90;99.90;;;;;;5049652;28;20055;-84
2023/10/13 07:37:03;;;;;;;44.90;27.58;;;14.10;99.90;;;;;;5045392;28;20075;-84
2023/10/13 07:39:39;;;;;;;40.38;24.75;;;14.20;99.90;;;;;;5046539;28;20080;-84
2023/10/13 07:42:15;;;;;;;49.00;22.30;;;14.30;99.90;;;;;;5047879;28;20020;-84
2023/10/13 07:44:45;;;;;;;43.83;22.20;;;14.30;99.90;;;;;;5044417;28;20013;-84
2023/10/13 07:47:14;;;;;;;35.15;19.60;;;14.30;99.90;;;;;;5048345;28;20049;-84
2023/10/13 07:49:40;;;;;;;34.88;19.58;;;14.30;99.90;;;;;;5042135;28;20036;-83
2023/10/13 07:54:50;;;;;;;31.90;18.55;;;14.40;99.90;;;;;;5044645;28;20063;-84
2023/10/13 07:57:17;;;;;;;42.92;21.02;;;14.30;99.90;;;;;;5042025;28;20033;-84
2023/10/13 08:00:04;;;;;;;34.40;20.75;;;14.40;99.90;;;;;;5050932;28;20029;-84
2023/10/13 08:02:48;;;;;;;35.72;19.48;;;14.40;99.90;;;;;;5052227;28;20044;-84
2023/10/13 08:05:24;;;;;;;60.80;31.40;;;14.40;99.90;;;;;;5049633;28;20032;-84
2023/10/13 08:07:50;;;;;;;32.80;19.02;;;14.50;99.90;;;;;;5052447;28;20059;-84
2023/10/13 08:10:17;;;;;;;40.47;21.48;;;14.50;99.90;;;;;;5057058;28;20025;-78
2023/10/13 08:12:44;;;;;;;92.68;44.45;;;14.60;99.90;;;;;;5051046;28;20032;-78
2023/10/13 08:15:21;;;;;;;70.13;35.40;;;14.70;99.90;;;;;;5051306;28;20025;-78
2023/10/13 08:17:47;;;;;;;51.13;24.75;;;14.80;99.90;;;;;;5051098;28;20045;-84
2023/10/13 08:20:16;;;;;;;40.90;21.70;;;14.90;99.90;;;;;;5050335;28;20041;-78
2023/10/13 08:22:47;;;;;;;63.63;28.30;;;15.00;99.90;;;;;;5049561;28;20017;-78
2023/10/13 08:25:52;;;;;;;56.60;25.90;;;15.20;99.90;;;;;;5049913;28;20372;-78
2023/10/13 08:30:52;;;;;;;41.60;19.95;;;15.50;99.90;;;;;;5051507;28;20075;-78
2023/10/13 08:33:18;;;;;;;36.47;16.95;;;15.60;99.90;;;;;;5050652;28;20033;-84
2023/10/13 08:35:54;;;;;;;34.58;17.15;;;15.70;99.90;;;;;;5052483;28;20410;-84
2023/10/13 08:38:28;;;;;;;44.05;21.58;;;15.80;99.90;;;;;;5053512;28;20484;-84
2023/10/13 08:43:45;;;;;;;31.90;16.05;;;16.10;99.90;;;;;;5052233;28;20071;-79
2023/10/13 08:46:24;;;;;;;28.60;15.35;;;16.20;99.90;;;;;;5052189;28;20041;-78
2023/10/13 08:49:03;;;;;;;35.90;18.13;;;16.20;99.90;;;;;;5055875;28;20017;-84
2023/10/13 08:51:43;;;;;;;30.35;17.90;;;16.20;99.90;;;;;;5051161;28;20071;-84
2023/10/13 08:54:19;;;;;;;28.75;15.45;;;16.20;99.90;;;;;;5052422;28;20521;-78
2023/10/13 08:56:57;;;;;;;33.25;16.30;;;16.40;99.90;;;;;;5052305;28;20044;-78
2023/10/13 08:59:38;;;;;;;26.88;14.55;;;16.50;99.90;;;;;;5050005;28;20025;-85
2023/10/13 09:02:17;;;;;;;21.77;14.40;;;16.70;99.90;;;;;;5042943;28;20033;-79
2023/10/13 09:04:47;;;;;;;27.45;15.95;;;16.80;99.90;;;;;;5051053;28;20040;-79
2023/10/13 09:07:15;;;;;;;20.23;13.48;;;17.00;99.90;;;;;;5052048;28;20017;-82
2023/10/13 09:12:14;;;;;;;18.38;12.10;;;17.30;99.90;;;;;;5052191;28;20079;-85
2023/10/13 09:14:44;;;;;;;19.65;12.35;;;17.50;99.90;;;;;;5050934;28;20025;-85
2023/10/13 09:19:55;;;;;;;21.63;12.45;;;17.50;99.90;;;;;;5054909;28;20091;-79
2023/10/13 09:22:36;;;;;;;16.25;11.82;;;17.50;99.90;;;;;;5054230;28;20039;-79
2023/10/13 09:25:05;;;;;;;20.98;13.75;;;17.40;99.90;;;;;;5054375;28;20029;-85
2023/10/13 09:27:33;;;;;;;18.40;12.05;;;17.40;99.90;;;;;;5062174;28;20440;-85
2023/10/13 09:30:08;;;;;;;23.52;12.13;;;17.30;99.90;;;;;;5055583;28;20060;-79
2023/10/13 09:32:45;;;;;;;21.88;11.48;;;17.40;99.90;;;;;;5054388;28;20459;-85
2023/10/13 09:35:19;;;;;;;18.92;12.05;;;17.50;99.90;;;;;;5055796;28;20029;-79
2023/10/13 09:37:48;;;;;;;19.30;11.60;;;17.60;99.90;;;;;;5063581;28;20017;-79
2023/10/13 09:43:07;;;;;;;20.73;11.88;;;17.90;99.90;;;;;;5055613;28;20086;-79
2023/10/13 09:45:43;;;;;;;22.00;11.50;;;18.00;99.90;;;;;;5053490;28;20029;-79
2023/10/13 09:48:21;;;;;;;15.57;9.77;;;18.20;99.90;;;;;;5054077;28;20044;-85
2023/10/13 09:50:48;;;;;;;14.57;9.05;;;18.30;99.90;;;;;;5055442;28;20106;-85
2023/10/13 09:53:17;;;;;;;21.10;11.25;;;18.30;99.90;;;;;;5054839;28;20039;-79
2023/10/13 09:55:49;;;;;;;21.73;11.13;;;18.40;99.90;;;;;;5041983;28;20022;-86
2023/10/13 09:58:18;;;;;;;16.15;9.23;;;18.50;99.90;;;;;;5053442;28;20025;-79
2023/10/13 10:01:09;;;;;;;16.95;9.02;;;18.70;99.90;;;;;;5053668;28;20033;-86
2023/10/13 10:03:50;;;;;;;22.85;12.23;;;18.80;99.90;;;;;;5045533;28;20059;-79
2023/10/13 10:06:28;;;;;;;12.43;7.75;;;18.80;99.90;;;;;;5054697;28;20494;-86
2023/10/13 10:09:11;;;;;;;12.93;7.03;;;18.90;99.90;;;;;;5053765;28;20037;-79
2023/10/13 10:12:20;;;;;;;15.25;8.55;;;18.90;99.90;;;;;;5053520;28;20112;-79
2023/10/13 10:14:56;;;;;;;18.73;9.73;;;18.80;99.90;;;;;;5047479;28;20054;-80
2023/10/13 10:17:22;;;;;;;16.63;9.18;;;18.70;99.90;;;;;;5056108;28;20021;-85
2023/10/13 10:19:56;;;;;;;11.82;7.30;;;18.80;99.90;;;;;;5053577;28;20033;-79
2023/10/13 10:22:36;;;;;;;10.60;7.97;;;18.80;99.90;;;;;;5053176;28;20029;-79
2023/10/13 10:25:03;;;;;;;14.75;6.90;;;18.90;99.90;;;;;;5056543;28;20027;-83
2023/10/13 10:27:31;;;;;;;8.77;6.00;;;18.90;99.90;;;;;;5052001;28;20025;-83
2023/10/13 10:29:57;;;;;;;10.18;6.68;;;18.80;99.90;;;;;;5054514;28;20070;-77
2023/10/13 10:32:33;;;;;;;12.68;7.57;;;18.70;99.90;;;;;;5054099;28;20025;-77
2023/10/13 10:35:14;;;;;;;12.45;6.55;;;18.60;99.90;;;;;;5054386;28;20025;-77
2023/10/13 10:37:46;;;;;;;8.27;5.50;;;18.40;99.90;;;;;;5054773;28;20028;-77
2023/10/13 10:40:32;;;;;;;20.02;8.85;;;18.40;99.90;;;;;;5054087;28;20064;-84
2023/10/13 10:43:00;;;;;;;11.77;7.50;;;18.50;99.90;;;;;;5052903;28;20033;-78
2023/10/13 10:45:32;;;;;;;13.65;7.55;;;18.50;99.90;;;;;;5053345;28;20104;-78
2023/10/13 10:47:58;;;;;;;10.50;5.70;;;18.50;99.90;;;;;;5046887;28;20064;-85
2023/10/13 10:50:36;;;;;;;12.25;6.53;;;18.50;99.90;;;;;;5053414;28;20035;-78
2023/10/13 10:53:08;;;;;;;18.13;9.55;;;18.50;99.90;;;;;;5056104;28;20486;-86
2023/10/13 10:55:38;;;;;;;13.00;8.40;;;18.50;99.90;;;;;;5054462;28;20024;-78
2023/10/13 10:58:28;;;;;;;14.43;7.35;;;18.60;99.90;;;;;;5053464;28;20032;-84
2023/10/13 11:01:10;;;;;;;13.43;6.43;;;18.70;99.90;;;;;;5052517;28;20048;-84
2023/10/13 11:03:38;;;;;;;10.67;5.80;;;19.00;99.90;;;;;;5053190;28;20120;-85
2023/10/13 11:06:04;;;;;;;10.13;6.22;;;19.20;99.90;;;;;;5053631;28;20017;-78
2023/10/13 11:08:33;;;;;;;10.68;5.70;;;19.40;99.90;;;;;;5052677;28;20466;-78
2023/10/13 11:11:05;;;;;;;12.68;5.78;;;19.50;99.90;;;;;;5055491;28;20021;-78
2023/10/13 11:13:50;;;;;;;10.93;5.28;;;19.60;99.90;;;;;;5052743;28;20463;-78
2023/10/13 11:16:33;;;;;;;11.93;6.10;;;19.80;99.90;;;;;;5052385;28;20546;-78
2023/10/13 11:19:05;;;;;;;12.80;6.05;;;19.90;99.90;;;;;;5051074;28;20612;-85
2023/10/13 11:21:31;;;;;;;39.40;19.38;;;19.90;99.90;;;;;;5061564;28;20028;-77
2023/10/13 11:24:08;;;;;;;57.40;24.80;;;19.80;99.90;;;;;;5055483;28;20115;-78
2023/10/13 11:26:49;;;;;;;45.03;17.58;;;19.70;99.90;;;;;;5052309;28;20025;-78
2023/10/13 11:29:18;;;;;;;51.13;20.98;;;19.50;99.90;;;;;;5052060;28;20024;-78
2023/10/13 11:31:58;;;;;;;20.85;9.70;;;19.40;99.90;;;;;;5053417;28;20031;-84
2023/10/13 11:34:25;;;;;;;16.60;8.52;;;19.30;99.90;;;;;;5058220;28;20025;-78
2023/10/13 11:36:51;;;;;;;18.35;8.52;;;19.30;99.90;;;;;;5051738;28;20032;-85
2023/10/13 11:39:25;;;;;;;14.50;7.95;;;19.50;99.90;;;;;;5052952;28;20048;-78
2023/10/13 11:41:54;;;;;;;23.40;9.02;;;19.70;99.90;;;;;;5051627;28;20037;-85
2023/10/13 11:51:47;;;;;;;10.00;6.28;;;20.20;99.90;;;;;;5052852;28;20017;-78
2023/10/13 11:54:17;;;;;;;10.13;6.32;;;20.10;99.90;;;;;;5052894;28;20040;-78
2023/10/13 11:56:47;;;;;;;10.40;6.15;;;20.10;99.90;;;;;;5051354;28;20066;-84
2023/10/13 11:59:23;;;;;;;10.63;7.10;;;20.20;99.90;;;;;;5053158;28;20462;-78
2023/10/13 12:04:54;;;;;;;17.38;6.68;;;20.10;99.90;;;;;;5053068;28;20048;-78
2023/10/13 12:07:26;;;;;;;12.82;7.20;;;20.20;99.90;;;;;;5051409;28;20031;-78
2023/10/13 12:12:28;;;;;;;11.70;6.50;;;20.40;99.90;;;;;;5052405;28;20494;-78
2023/10/13 12:14:55;;;;;;;10.50;5.57;;;20.40;99.90;;;;;;5043680;28;20364;-85
2023/10/13 12:17:28;;;;;;;11.82;5.40;;;20.40;99.90;;;;;;5038502;28;20033;-85
2023/10/13 12:19:54;;;;;;;8.63;5.60;;;20.40;99.90;;;;;;5050094;28;20039;-78
2023/10/13 12:22:35;;;;;;;12.95;5.90;;;20.30;99.90;;;;;;5050739;28;20970;-79
2023/10/13 12:25:05;;;;;;;10.55;6.07;;;20.40;99.90;;;;;;5052312;28;20035;-84
2023/10/13 12:27:45;;;;;;;11.45;6.15;;;20.40;99.90;;;;;;5052218;28;20473;-85
2023/10/13 12:30:13;;;;;;;9.65;4.70;;;20.30;99.90;;;;;;5053704;28;20016;-78
2023/10/13 12:32:44;;;;;;;8.65;5.40;;;20.30;99.90;;;;;;5052430;28;20024;-78
2023/10/13 12:37:38;;;;;;;6.88;4.75;;;20.50;99.90;;;;;;5043567;28;20041;-78
2023/10/13 12:51:23;;;;;;;11.27;4.65;;;20.60;98.40;;;;;;5054824;28;20039;-85
2023/10/13 12:53:51;;;;;;;7.80;4.70;;;20.60;99.90;;;;;;5056490;28;20020;-85
2023/10/13 12:56:22;;;;;;;9.57;5.43;;;20.60;99.00;;;;;;5054895;28;20025;-85
2023/10/13 12:58:54;;;;;;;8.80;5.30;;;20.60;99.00;;;;;;5061494;28;20017;-83
2023/10/13 13:01:20;;;;;;;9.60;5.00;;;20.50;99.10;;;;;;5055837;28;20075;-78
2023/10/13 13:03:47;;;;;;;6.75;4.68;;;20.50;98.90;;;;;;5054707;28;20013;-78
2023/10/13 13:06:24;;;;;;;11.07;4.25;;;20.50;99.10;;;;;;5056180;28;20021;-86
2023/10/13 13:08:53;;;;;;;8.10;5.20;;;20.50;99.90;;;;;;5054797;28;20544;-85
2023/10/13 13:11:20;;;;;;;7.90;4.57;;;20.50;99.90;;;;;;5054310;28;20059;-84
2023/10/13 13:13:46;;;;;;;11.43;4.60;;;20.50;99.90;;;;;;5057111;28;20079;-79
2023/10/13 13:16:18;;;;;;;6.53;4.63;;;20.50;99.90;;;;;;5055733;28;20025;-85
2023/10/13 13:18:44;;;;;;;7.18;4.80;;;20.50;99.50;;;;;;5053933;28;20505;-86
2023/10/13 13:21:19;;;;;;;9.45;5.18;;;20.50;99.90;;;;;;5053592;28;20029;-86
2023/10/13 13:23:49;;;;;;;5.32;4.65;;;20.60;99.90;;;;;;5059214;28;20053;-85
2023/10/13 13:26:18;;;;;;;8.30;5.25;;;20.60;99.90;;;;;;5055713;28;20017;-84
2023/10/13 13:28:50;;;;;;;11.55;4.78;;;20.60;99.90;;;;;;5054209;28;20143;-85
2023/10/13 13:31:16;;;;;;;;;;;20.50;99.90;;;;;;5056237;28;20455;-84
2023/10/13 13:33:43;;;;;;;9.93;5.43;;;20.50;99.90;;;;;;5053949;28;19984;-84
2023/10/13 13:36:16;;;;;;;10.63;5.65;;;20.50;99.90;;;;;;5054504;28;20025;-85
2023/10/13 13:38:45;;;;;;;6.97;4.18;;;20.50;99.90;;;;;;5054348;28;20021;-78
2023/10/13 13:41:16;;;;;;;6.72;4.00;;;20.50;99.90;;;;;;5055204;28;20036;-84
2023/10/13 13:44:01;;;;;;;5.90;4.15;;;20.50;99.90;;;;;;5053799;28;20021;-85
2023/10/13 13:46:41;;;;;;;7.50;4.32;;;20.50;99.90;;;;;;5054041;28;20052;-85
2023/10/13 13:49:08;;;;;;;8.15;5.05;;;20.60;99.90;;;;;;5055149;28;20415;-85
2023/10/13 13:51:37;;;;;;;10.63;4.68;;;20.70;99.90;;;;;;5055075;28;20025;-85
2023/10/13 13:54:06;;;;;;;8.18;4.95;;;20.70;99.90;;;;;;5055106;28;20421;-78
2023/10/13 13:56:38;;;;;;;7.18;4.45;;;20.60;99.90;;;;;;5055485;28;20024;-84
2023/10/13 13:59:08;;;;;;;10.15;5.38;;;20.50;99.90;;;;;;5055122;28;20375;-78
2023/10/13 14:01:37;;;;;;;9.88;4.47;;;20.50;99.90;;;;;;5052303;28;20025;-78
2023/10/13 14:04:03;;;;;;;11.10;4.72;;;20.40;99.90;;;;;;5061355;28;20036;-84
2023/10/13 14:06:29;;;;;;;9.68;5.45;;;20.40;99.90;;;;;;5041025;28;20029;-78
2023/10/13 14:08:57;;;;;;;10.45;6.00;;;20.30;99.90;;;;;;5054850;28;20018;-85
2023/10/13 14:14:29;;;;;;;9.10;4.38;;;20.30;99.90;;;;;;5041676;28;20033;-85
2023/10/13 14:17:07;;;;;;;11.18;5.90;;;20.30;99.90;;;;;;5053905;28;20025;-84
2023/10/13 14:19:34;;;;;;;40.58;20.80;;;20.20;99.90;;;;;;5041684;28;20500;-78
2023/10/13 14:22:06;;;;;;;14.10;7.40;;;20.20;99.90;;;;;;5053087;28;20040;-84
2023/10/13 14:24:35;;;;;;;12.57;5.87;;;20.10;99.90;;;;;;5056764;28;20103;-79
2023/10/13 14:27:11;;;;;;;10.18;4.53;;;20.10;99.90;;;;;;5057361;28;20276;-78
2023/10/13 14:29:40;;;;;;;8.57;4.85;;;20.10;99.90;;;;;;5053710;28;20028;-84
2023/10/13 14:32:07;;;;;;;6.05;4.05;;;20.10;99.90;;;;;;5052913;28;20024;-85
2023/10/13 14:34:35;;;;;;;7.15;3.60;;;20.00;99.90;;;;;;5043815;28;20021;-85
2023/10/13 14:37:01;;;;;;;8.07;4.80;;;19.90;99.90;;;;;;5050407;28;20029;-84
2023/10/13 14:39:29;;;;;;;4.53;3.30;;;19.80;99.90;;;;;;5052828;28;20403;-78
2023/10/13 14:41:55;;;;;;;9.63;3.92;;;19.70;99.90;;;;;;5053901;28;20066;-78
2023/10/13 14:44:26;;;;;;;10.40;5.03;;;19.70;99.90;;;;;;5060511;28;20032;-85
2023/10/13 14:46:54;;;;;;;8.32;4.20;;;19.60;99.90;;;;;;5053992;28;20425;-85
2023/10/13 14:49:21;;;;;;;6.40;4.53;;;19.50;99.90;;;;;;5052742;28;20061;-78
2023/10/13 14:51:46;;;;;;;6.97;4.88;;;19.40;99.90;;;;;;5056909;28;20413;-78
2023/10/13 14:54:14;;;;;;;6.75;4.55;;;19.30;99.90;;;;;;5060642;28;20027;-79
2023/10/13 14:56:42;;;;;;;11.60;5.68;;;19.30;99.90;;;;;;5052693;28;20055;-85
2023/10/13 14:59:16;;;;;;;10.00;5.80;;;19.20;99.90;;;;;;5053820;28;20382;-84
2023/10/13 15:01:42;;;;;;;8.80;5.75;;;19.20;99.90;;;;;;5050348;28;20425;-84
2023/10/13 15:04:08;;;;;;;18.13;5.40;;;19.10;99.90;;;;;;5053482;28;20029;-78
2023/10/13 15:06:34;;;;;;;8.88;5.43;;;19.20;99.90;;;;;;5054010;28;20364;-84
2023/10/13 15:09:00;;;;;;;14.48;6.07;;;19.10;99.90;;;;;;5053722;28;20021;-85
2023/10/13 15:11:35;;;;;;;11.68;6.07;;;19.20;99.90;;;;;;5056132;28;20017;-85
2023/10/13 15:14:02;;;;;;;12.38;5.90;;;19.10;99.90;;;;;;5047024;28;20017;-85
2023/10/13 15:16:27;;;;;;;7.68;4.65;;;19.10;99.90;;;;;;5053642;28;20096;-84
2023/10/13 15:18:54;;;;;;;8.00;4.53;;;19.10;99.90;;;;;;5051137;28;20047;-78
2023/10/13 15:21:24;;;;;;;8.02;4.07;;;19.10;99.90;;;;;;5052099;28;20033;-78
2023/10/13 15:23:51;;;;;;;7.80;4.28;;;19.00;99.90;;;;;;5053162;28;20024;-78
2023/10/13 15:26:23;;;;;;;7.35;4.85;;;18.90;99.90;;;;;;5051990;28;20417;-84
2023/10/13 15:28:49;;;;;;;5.68;4.00;;;18.80;99.90;;;;;;5052632;28;20021;-78
2023/10/13 15:34:00;;;;;;;5.70;4.10;;;18.70;99.90;;;;;;5057238;28;20417;-78
2023/10/13 15:36:26;;;;;;;7.25;4.60;;;18.70;99.90;;;;;;5058942;28;20044;-85
2023/10/13 15:38:53;;;;;;;8.05;4.47;;;18.60;99.90;;;;;;5046226;28;20020;-85
2023/10/13 15:41:26;;;;;;;7.07;3.75;;;18.60;99.90;;;;;;5045056;28;20033;-78
2023/10/13 15:43:54;;;;;;;6.10;3.80;;;18.50;99.90;;;;;;5047989;28;20025;-84
2023/10/13 15:46:21;;;;;;;8.65;4.18;;;18.50;99.90;;;;;;5052576;28;20417;-78
2023/10/13 15:48:51;;;;;;;7.15;4.00;;;18.40;99.90;;;;;;5053429;28;20076;-84
2023/10/13 15:51:17;;;;;;;5.72;3.90;;;18.40;99.90;;;;;;5051503;28;20028;-78
2023/10/13 15:53:47;;;;;;;5.38;3.78;;;18.30;99.90;;;;;;5035341;28;20086;-78
2023/10/13 15:56:16;;;;;;;8.60;4.47;;;18.20;99.90;;;;;;5052752;28;20021;-78
2023/10/13 15:58:45;;;;;;;8.45;5.07;;;18.10;99.90;;;;;;5052889;28;20017;-85